Time;durP1;ratioP1;P1;durP2;ratioP2;P2;SDS_P1;SDS_P2;PMS_P1;PMS_P2;Temp;Humidity;BMP_temperature;BMP_pressure;BME280_temperature;BME280_humidity;BME280_pressure;Samples;Min_cycle;Max_cycle;Signal;HPM_P1;HPM_P2
2021/08/26 00:07:37;;;;;;;1.40;1.05;;;20.30;99.90;;;;;;5047398;28;20317;-76
2021/08/26 00:10:08;;;;;;;1.80;1.33;;;20.30;99.90;;;;;;5039764;28;20219;-75
2021/08/26 00:12:36;;;;;;;1.48;1.38;;;20.30;99.90;;;;;;5050913;28;20196;-75
2021/08/26 00:15:03;;;;;;;1.40;0.80;;;20.20;99.90;;;;;;5052050;28;20580;-75
2021/08/26 00:17:29;;;;;;;1.90;1.13;;;20.20;99.90;;;;;;5050808;28;20215;-75
2021/08/26 00:19:56;;;;;;;1.20;0.90;;;20.20;99.90;;;;;;5050783;28;20290;-75
2021/08/26 00:22:23;;;;;;;1.33;0.90;;;20.20;99.90;;;;;;5051794;28;20194;-75
2021/08/26 00:24:51;;;;;;;1.90;1.35;;;20.20;99.90;;;;;;5051095;28;20206;-75
2021/08/26 00:27:18;;;;;;;1.20;0.90;;;20.20;99.90;;;;;;5051764;28;20202;-76
2021/08/26 00:29:44;;;;;;;1.30;1.10;;;20.20;99.90;;;;;;5050825;28;20191;-75
2021/08/26 00:32:11;;;;;;;1.55;1.23;;;20.10;99.90;;;;;;5046075;28;20629;-76
2021/08/26 00:34:38;;;;;;;1.38;1.13;;;20.10;99.90;;;;;;5052241;28;20214;-75
2021/08/26 00:37:05;;;;;;;1.50;1.10;;;20.10;99.90;;;;;;5051655;28;20187;-75
2021/08/26 00:39:31;;;;;;;1.10;0.93;;;20.10;99.90;;;;;;5037404;28;20200;-76
2021/08/26 00:41:59;;;;;;;1.15;1.00;;;20.00;99.90;;;;;;5050688;28;20218;-76
2021/08/26 00:44:26;;;;;;;1.20;0.90;;;20.00;99.90;;;;;;5051851;28;20195;-75
2021/08/26 00:46:53;;;;;;;1.20;1.00;;;20.00;99.90;;;;;;5050652;28;20199;-75
2021/08/26 00:49:20;;;;;;;1.30;1.20;;;20.10;99.90;;;;;;5048019;28;20583;-74
2021/08/26 00:51:46;;;;;;;1.70;1.10;;;20.00;99.90;;;;;;5050982;28;20656;-74
2021/08/26 00:54:14;;;;;;;1.27;1.05;;;20.00;99.90;;;;;;5040764;28;20220;-74
2021/08/26 00:56:40;;;;;;;1.10;0.90;;;20.00;99.90;;;;;;5038796;28;20214;-74
2021/08/26 00:59:09;;;;;;;1.00;0.90;;;19.90;99.90;;;;;;5050412;28;20202;-74
2021/08/26 01:01:43;;;;;;;1.00;0.80;;;19.90;99.90;;;;;;5043436;28;20204;-74
2021/08/26 01:04:17;;;;;;;1.23;1.05;;;19.90;99.90;;;;;;5037727;28;20728;-77
2021/08/26 01:06:53;;;;;;;1.10;0.80;;;19.90;99.90;;;;;;5050826;28;20275;-74
2021/08/26 01:09:26;;;;;;;1.83;0.95;;;19.90;99.90;;;;;;5048861;28;20206;-74
2021/08/26 01:11:54;;;;;;;1.20;1.10;;;19.90;99.90;;;;;;5054861;28;20204;-74
2021/08/26 01:14:23;;;;;;;1.30;1.05;;;19.80;99.90;;;;;;5055463;28;20211;-74
2021/08/26 01:16:50;;;;;;;1.20;0.95;;;19.90;99.90;;;;;;5052271;28;20193;-75
2021/08/26 01:19:31;;;;;;;1.20;1.10;;;19.80;99.90;;;;;;5054312;28;20242;-74
2021/08/26 01:21:58;;;;;;;1.52;1.10;;;19.80;99.90;;;;;;5070949;28;20187;-75
2021/08/26 01:24:28;;;;;;;1.20;0.90;;;19.80;99.90;;;;;;5051442;28;20606;-74
2021/08/26 01:26:59;;;;;;;2.53;0.90;;;19.80;99.90;;;;;;5051464;28;20668;-74
2021/08/26 01:29:26;;;;;;;1.40;1.10;;;19.70;99.90;;;;;;5053813;28;20230;-75
2021/08/26 01:31:53;;;;;;;1.85;0.90;;;19.80;99.90;;;;;;5054111;28;20341;-74
2021/08/26 01:34:21;;;;;;;1.25;1.08;;;19.80;99.90;;;;;;5043012;28;20223;-75
2021/08/26 01:36:48;;;;;;;4.95;1.08;;;19.70;99.90;;;;;;5054175;28;20659;-74
2021/08/26 01:39:16;;;;;;;1.50;1.13;;;19.70;99.90;;;;;;5043026;28;20227;-74
2021/08/26 01:41:46;;;;;;;1.30;1.00;;;19.70;99.90;;;;;;5052425;28;20183;-75
2021/08/26 01:44:16;;;;;;;1.40;0.95;;;19.70;99.90;;;;;;5054919;28;20301;-75
2021/08/26 01:46:42;;;;;;;1.17;0.88;;;19.70;99.90;;;;;;5055023;28;20191;-75
2021/08/26 01:49:09;;;;;;;1.20;1.08;;;19.70;99.90;;;;;;5050249;28;20652;-74
2021/08/26 01:51:37;;;;;;;2.17;1.10;;;19.60;99.90;;;;;;5053822;28;20276;-74
2021/08/26 01:54:04;;;;;;;2.15;1.33;;;19.60;99.90;;;;;;5045624;28;20612;-75
2021/08/26 01:56:31;;;;;;;1.30;1.20;;;19.60;99.90;;;;;;5050376;28;20691;-76
2021/08/26 01:58:58;;;;;;;1.55;1.20;;;19.50;99.90;;;;;;5049578;28;20196;-76
2021/08/26 02:01:26;;;;;;;1.23;1.00;;;19.50;99.90;;;;;;5051964;28;20237;-74
2021/08/26 02:03:52;;;;;;;1.65;1.13;;;19.50;99.90;;;;;;5047540;28;20603;-74
2021/08/26 02:06:19;;;;;;;1.60;1.20;;;19.40;99.90;;;;;;5053884;28;20205;-74
2021/08/26 02:08:46;;;;;;;1.40;1.23;;;19.40;99.90;;;;;;5045322;28;20200;-74
2021/08/26 02:11:12;;;;;;;1.60;1.08;;;19.40;99.90;;;;;;5045657;28;20196;-73
2021/08/26 02:13:39;;;;;;;1.60;1.10;;;19.40;99.90;;;;;;5054127;28;20199;-74
2021/08/26 02:16:06;;;;;;;1.75;1.15;;;19.40;99.90;;;;;;5053835;28;20679;-73
2021/08/26 02:18:35;;;;;;;2.85;1.13;;;19.40;99.90;;;;;;5052191;28;20241;-73
2021/08/26 02:21:01;;;;;;;1.38;1.17;;;19.40;99.90;;;;;;5053856;28;20215;-74
2021/08/26 02:23:28;;;;;;;2.40;1.08;;;19.40;99.90;;;;;;5052901;28;20196;-74
2021/08/26 02:25:55;;;;;;;1.77;1.45;;;19.30;99.90;;;;;;5053777;28;20253;-74
2021/08/26 02:28:21;;;;;;;2.63;1.35;;;19.30;99.90;;;;;;5053559;28;20200;-74
2021/08/26 02:30:48;;;;;;;5.57;1.70;;;19.30;99.90;;;;;;5053761;28;20203;-74
2021/08/26 02:33:15;;;;;;;1.45;1.30;;;19.30;99.90;;;;;;5048329;28;20246;-73
2021/08/26 02:35:43;;;;;;;1.33;1.15;;;19.30;99.90;;;;;;5034376;28;20228;-74
2021/08/26 02:38:09;;;;;;;1.83;1.23;;;19.20;99.90;;;;;;5050674;28;20654;-74
2021/08/26 02:40:36;;;;;;;3.95;1.55;;;19.30;99.90;;;;;;5054228;28;20191;-74
2021/08/26 02:43:03;;;;;;;1.60;1.00;;;19.30;99.90;;;;;;5053615;28;20648;-74
2021/08/26 02:45:30;;;;;;;1.52;1.05;;;19.20;99.90;;;;;;5054660;28;20630;-74
2021/08/26 02:47:56;;;;;;;1.90;1.08;;;19.20;99.90;;;;;;5050707;28;20238;-74
2021/08/26 02:50:23;;;;;;;2.20;1.15;;;19.20;99.90;;;;;;5054081;28;20245;-72
2021/08/26 02:52:51;;;;;;;1.70;1.30;;;19.20;99.90;;;;;;5053711;28;20277;-74
2021/08/26 02:55:18;;;;;;;1.83;1.30;;;19.10;99.90;;;;;;5048155;28;20277;-74
2021/08/26 02:57:45;;;;;;;2.67;1.20;;;19.10;99.90;;;;;;5052061;28;20203;-75
2021/08/26 03:00:12;;;;;;;2.05;1.50;;;19.20;99.90;;;;;;5052299;28;20245;-75
2021/08/26 03:02:39;;;;;;;2.95;1.40;;;19.10;99.90;;;;;;5042179;28;20199;-75
2021/08/26 03:05:06;;;;;;;3.45;1.30;;;19.10;99.90;;;;;;5054094;28;20195;-75
2021/08/26 03:07:33;;;;;;;1.55;1.10;;;19.10;99.90;;;;;;5052089;28;20257;-75
2021/08/26 03:10:01;;;;;;;1.67;1.20;;;19.10;99.90;;;;;;5039343;28;20200;-75
2021/08/26 03:12:28;;;;;;;3.17;1.40;;;19.10;99.90;;;;;;5053280;28;20577;-74
2021/08/26 03:14:54;;;;;;;2.33;1.75;;;19.10;99.90;;;;;;5053048;28;20688;-75
2021/08/26 03:17:21;;;;;;;3.53;1.30;;;19.00;99.90;;;;;;5050503;28;20641;-76
2021/08/26 03:19:48;;;;;;;2.70;1.77;;;19.00;99.90;;;;;;5051470;28;20226;-75
2021/08/26 03:22:14;;;;;;;3.85;1.70;;;19.00;99.90;;;;;;5052974;28;20722;-74
2021/08/26 03:24:41;;;;;;;2.60;1.38;;;19.00;99.90;;;;;;5037898;28;20262;-74
2021/08/26 03:27:10;;;;;;;4.10;1.75;;;19.00;99.90;;;;;;5047820;28;20203;-74
2021/08/26 03:29:36;;;;;;;1.50;1.20;;;19.00;99.90;;;;;;5051578;28;20257;-75
2021/08/26 03:32:04;;;;;;;3.05;1.85;;;19.20;99.90;;;;;;5041384;28;20204;-75
2021/08/26 03:34:30;;;;;;;2.75;1.67;;;19.00;99.90;;;;;;5052680;28;20215;-75
2021/08/26 03:36:57;;;;;;;6.32;2.05;;;19.00;99.90;;;;;;5052133;28;20253;-75
2021/08/26 03:39:24;;;;;;;2.60;1.23;;;19.00;99.90;;;;;;5050436;28;20199;-75
2021/08/26 03:41:50;;;;;;;2.67;1.58;;;19.00;99.90;;;;;;5052886;28;20195;-75
2021/08/26 03:44:18;;;;;;;2.55;1.63;;;19.00;99.90;;;;;;5052842;28;20260;-75
2021/08/26 03:46:45;;;;;;;2.95;1.50;;;18.90;99.90;;;;;;5051301;28;20257;-75
2021/08/26 03:49:12;;;;;;;4.32;1.85;;;18.90;99.90;;;;;;5045036;28;20225;-75
2021/08/26 03:51:38;;;;;;;5.88;1.70;;;18.90;99.90;;;;;;5049563;28;20195;-75
2021/08/26 03:54:05;;;;;;;2.15;1.88;;;18.90;99.90;;;;;;5042571;28;20196;-76
2021/08/26 03:56:32;;;;;;;2.15;1.58;;;18.90;99.90;;;;;;5052486;28;20223;-75
2021/08/26 03:58:59;;;;;;;2.10;1.30;;;18.90;99.90;;;;;;5052110;28;20560;-75
2021/08/26 04:01:27;;;;;;;2.75;1.80;;;18.90;99.90;;;;;;5046749;28;20604;-75
2021/08/26 04:03:54;;;;;;;2.35;1.45;;;18.80;99.90;;;;;;5045410;28;20253;-75
2021/08/26 04:06:20;;;;;;;1.73;1.40;;;18.80;99.90;;;;;;5052131;28;20207;-74
2021/08/26 04:08:47;;;;;;;2.45;1.60;;;18.80;99.90;;;;;;5045490;28;20196;-75
2021/08/26 04:11:15;;;;;;;2.50;1.98;;;18.80;99.90;;;;;;5050112;28;20191;-75
2021/08/26 04:13:41;;;;;;;2.28;1.60;;;18.80;99.90;;;;;;5051510;28;20203;-75
2021/08/26 04:16:09;;;;;;;4.50;1.60;;;18.80;99.90;;;;;;5052363;28;20215;-74
2021/08/26 04:18:37;;;;;;;2.95;1.45;;;18.80;99.90;;;;;;5040369;28;20204;-75
2021/08/26 04:21:03;;;;;;;3.13;1.75;;;18.80;99.90;;;;;;5048523;28;20219;-76
2021/08/26 04:23:30;;;;;;;2.88;1.65;;;18.80;99.90;;;;;;5047136;28;20712;-76
2021/08/26 04:25:57;;;;;;;2.30;1.52;;;18.70;99.90;;;;;;5039759;28;20195;-76
2021/08/26 04:28:23;;;;;;;3.33;1.83;;;18.70;99.90;;;;;;5052185;28;20603;-76
2021/08/26 04:30:50;;;;;;;4.18;2.15;;;18.70;99.90;;;;;;5050823;28;20206;-75
2021/08/26 04:33:17;;;;;;;4.68;1.70;;;18.70;99.90;;;;;;5049677;28;20192;-75
2021/08/26 04:35:45;;;;;;;2.20;1.75;;;18.70;99.90;;;;;;5052296;28;20630;-74
2021/08/26 04:38:11;;;;;;;4.13;1.70;;;18.70;99.90;;;;;;5049847;28;20195;-74
2021/08/26 04:40:39;;;;;;;1.95;1.50;;;18.70;99.90;;;;;;5052339;28;20192;-74
2021/08/26 04:43:06;;;;;;;3.25;2.00;;;18.70;99.90;;;;;;5051639;28;20192;-75
2021/08/26 04:45:33;;;;;;;2.78;1.42;;;18.70;99.90;;;;;;5051023;28;20214;-76
2021/08/26 04:47:59;;;;;;;5.30;1.60;;;18.70;99.90;;;;;;5049788;28;20195;-76
2021/08/26 04:50:26;;;;;;;2.75;1.38;;;18.70;99.90;;;;;;5041944;28;20203;-76
2021/08/26 04:52:54;;;;;;;3.72;1.83;;;18.70;99.90;;;;;;5051598;28;20210;-76
2021/08/26 04:55:21;;;;;;;2.20;1.80;;;18.70;99.90;;;;;;5049202;28;20226;-75
2021/08/26 04:57:47;;;;;;;3.97;1.75;;;18.70;99.90;;;;;;5052083;28;20545;-75
2021/08/26 05:00:15;;;;;;;5.15;2.15;;;18.60;99.90;;;;;;5050404;28;20652;-75
2021/08/26 05:02:41;;;;;;;4.80;1.73;;;18.60;99.90;;;;;;5038664;28;20200;-76
2021/08/26 05:05:09;;;;;;;3.47;1.75;;;18.70;99.90;;;;;;5048367;28;20257;-75
2021/08/26 05:07:36;;;;;;;5.65;1.80;;;18.70;99.90;;;;;;5051803;28;20204;-77
2021/08/26 05:10:05;;;;;;;3.95;2.05;;;18.70;99.90;;;;;;5045558;28;20206;-76
2021/08/26 05:12:31;;;;;;;2.10;1.42;;;18.60;99.90;;;;;;5051081;28;20210;-75
2021/08/26 05:14:58;;;;;;;1.85;1.73;;;18.60;99.90;;;;;;5051145;28;20207;-75
2021/08/26 05:17:25;;;;;;;2.40;1.73;;;18.60;99.90;;;;;;5045252;28;20193;-75
2021/08/26 05:19:51;;;;;;;2.72;1.60;;;18.60;99.90;;;;;;5043482;28;20215;-76
2021/08/26 05:22:19;;;;;;;3.53;1.60;;;18.60;99.90;;;;;;5050849;28;20207;-75
2021/08/26 05:24:47;;;;;;;3.95;2.00;;;18.60;99.90;;;;;;5048907;28;20199;-76
2021/08/26 05:27:15;;;;;;;3.63;1.83;;;18.60;99.90;;;;;;5051160;28;20223;-76
2021/08/26 05:29:44;;;;;;;1.98;1.75;;;18.50;99.90;;;;;;5051143;28;20222;-76
2021/08/26 05:32:10;;;;;;;4.30;2.00;;;18.50;99.90;;;;;;5040945;28;20266;-76
2021/08/26 05:34:37;;;;;;;2.63;1.83;;;18.50;99.90;;;;;;5042920;28;20664;-75
2021/08/26 05:37:04;;;;;;;2.92;1.75;;;18.50;99.90;;;;;;5051170;28;20219;-75
2021/08/26 05:39:31;;;;;;;3.58;2.10;;;18.50;99.90;;;;;;5046646;28;20191;-76
2021/08/26 05:41:57;;;;;;;4.10;2.53;;;18.60;99.90;;;;;;5049884;28;20226;-76
2021/08/26 05:44:25;;;;;;;4.50;1.70;;;18.50;99.90;;;;;;5051541;28;20233;-76
2021/08/26 05:46:52;;;;;;;2.10;1.77;;;18.50;99.90;;;;;;5050152;28;20211;-76
2021/08/26 05:49:19;;;;;;;3.53;1.67;;;18.50;99.90;;;;;;5051001;28;20192;-76
2021/08/26 05:51:46;;;;;;;1.80;1.70;;;18.50;99.90;;;;;;5048619;28;20241;-77
2021/08/26 05:54:12;;;;;;;4.55;1.75;;;18.50;99.90;;;;;;5048952;28;20196;-76
2021/08/26 05:56:39;;;;;;;4.18;1.77;;;18.50;99.90;;;;;;5053490;28;20269;-76
2021/08/26 05:59:06;;;;;;;4.18;2.15;;;18.50;99.90;;;;;;5054636;28;20233;-76
2021/08/26 06:01:34;;;;;;;4.22;2.35;;;18.50;99.90;;;;;;5053942;28;20221;-76
2021/08/26 06:04:00;;;;;;;2.85;1.75;;;18.50;99.90;;;;;;5052767;28;20249;-76
2021/08/26 06:06:27;;;;;;;2.15;1.70;;;18.40;99.90;;;;;;5054931;28;20206;-76
2021/08/26 06:08:54;;;;;;;5.97;2.50;;;18.40;99.90;;;;;;5050259;28;20188;-76
2021/08/26 06:11:20;;;;;;;3.40;2.08;;;18.50;99.90;;;;;;5052494;28;20192;-77
2021/08/26 06:13:47;;;;;;;3.35;1.67;;;18.50;99.90;;;;;;5053031;28;20199;-75
2021/08/26 06:16:14;;;;;;;3.58;1.95;;;18.50;99.90;;;;;;5053796;28;20207;-75
2021/08/26 06:18:42;;;;;;;3.15;1.80;;;18.50;99.90;;;;;;5036321;28;20204;-75
2021/08/26 06:21:10;;;;;;;3.47;1.75;;;18.50;99.90;;;;;;5052060;28;20211;-75
2021/08/26 06:23:37;;;;;;;4.93;1.95;;;18.60;99.90;;;;;;5050464;28;20246;-75
2021/08/26 06:26:04;;;;;;;3.88;1.65;;;18.60;99.90;;;;;;5054768;28;20204;-76
2021/08/26 06:28:30;;;;;;;3.28;2.10;;;18.60;99.90;;;;;;5054589;28;20215;-76
2021/08/26 06:30:57;;;;;;;3.60;1.88;;;18.70;99.90;;;;;;5052610;28;20706;-76
2021/08/26 06:33:24;;;;;;;2.50;1.58;;;18.90;99.90;;;;;;5047283;28;20192;-76
2021/08/26 06:35:52;;;;;;;4.95;1.80;;;19.00;99.90;;;;;;5054147;28;20236;-76
2021/08/26 06:38:18;;;;;;;2.75;1.80;;;19.10;99.90;;;;;;5051366;28;20203;-76
2021/08/26 06:40:45;;;;;;;4.05;2.30;;;19.20;99.90;;;;;;5050701;28;20195;-76
2021/08/26 06:43:12;;;;;;;2.53;1.58;;;19.20;99.90;;;;;;5053678;28;20241;-75
2021/08/26 06:45:39;;;;;;;5.00;1.98;;;19.20;99.90;;;;;;5054176;28;20196;-75
2021/08/26 06:48:06;;;;;;;5.60;1.67;;;19.20;99.90;;;;;;5037803;28;20234;-75
2021/08/26 06:50:32;;;;;;;3.10;1.73;;;19.20;99.90;;;;;;5049475;28;20195;-75
2021/08/26 06:53:00;;;;;;;3.60;1.50;;;19.10;99.90;;;;;;5052819;28;20199;-75
2021/08/26 06:55:27;;;;;;;4.40;2.00;;;19.10;99.90;;;;;;5052573;28;20652;-76
2021/08/26 06:57:54;;;;;;;8.27;2.00;;;19.10;99.90;;;;;;5053426;28;20603;-75
2021/08/26 07:00:21;;;;;;;3.97;1.75;;;19.00;99.90;;;;;;5053113;28;20245;-75
2021/08/26 07:02:47;;;;;;;3.45;1.85;;;19.00;99.90;;;;;;5044404;28;20287;-76
2021/08/26 07:05:14;;;;;;;4.05;1.52;;;18.90;99.90;;;;;;5051073;28;20195;-76
2021/08/26 07:07:41;;;;;;;5.53;2.25;;;18.90;99.90;;;;;;5052950;28;20199;-75
2021/08/26 07:10:10;;;;;;;4.47;1.75;;;18.90;99.90;;;;;;5046752;28;20191;-76
2021/08/26 07:12:36;;;;;;;4.40;1.75;;;18.90;99.90;;;;;;5052730;28;20195;-76
2021/08/26 07:15:04;;;;;;;3.40;1.80;;;18.80;99.90;;;;;;5052941;28;20599;-76
2021/08/26 07:17:30;;;;;;;2.75;1.80;;;18.80;99.90;;;;;;5040344;28;20707;-76
2021/08/26 07:19:57;;;;;;;3.38;1.50;;;18.80;99.90;;;;;;5046540;28;20696;-76
2021/08/26 07:22:23;;;;;;;5.93;2.15;;;18.80;99.90;;;;;;5051001;28;20851;-75
2021/08/26 07:24:50;;;;;;;4.00;1.80;;;18.80;99.90;;;;;;5048665;28;20626;-75
2021/08/26 07:27:18;;;;;;;3.30;1.95;;;18.80;99.90;;;;;;5053779;28;20318;-76
2021/08/26 07:29:45;;;;;;;6.28;1.95;;;18.80;99.90;;;;;;5052624;28;20195;-76
2021/08/26 07:32:12;;;;;;;5.30;2.05;;;18.80;99.90;;;;;;5046753;28;20560;-75
2021/08/26 07:34:38;;;;;;;2.28;1.63;;;18.80;99.90;;;;;;5041735;28;20199;-75
2021/08/26 07:37:05;;;;;;;3.72;1.90;;;18.80;99.90;;;;;;5053229;28;20222;-75
2021/08/26 07:39:32;;;;;;;5.63;3.55;;;18.90;99.90;;;;;;5045579;28;20264;-75
2021/08/26 07:41:59;;;;;;;2.30;1.77;;;18.90;99.90;;;;;;5051415;28;20245;-75
2021/08/26 07:44:27;;;;;;;3.10;1.70;;;18.90;99.90;;;;;;5052995;28;20249;-75
2021/08/26 07:46:53;;;;;;;3.30;1.90;;;18.90;99.90;;;;;;5046516;28;20204;-76
2021/08/26 07:49:20;;;;;;;1.63;1.33;;;19.00;99.90;;;;;;5035498;28;21356;-75
2021/08/26 07:51:47;;;;;;;3.58;1.75;;;19.00;99.90;;;;;;5052103;28;20200;-75
2021/08/26 07:54:13;;;;;;;3.75;1.50;;;19.10;99.90;;;;;;5041888;28;20616;-74
2021/08/26 07:56:40;;;;;;;3.70;2.20;;;19.10;99.90;;;;;;5033123;28;20246;-74
2021/08/26 07:59:07;;;;;;;4.50;1.73;;;19.20;99.90;;;;;;5044342;28;20253;-74
2021/08/26 08:01:35;;;;;;;5.60;2.00;;;19.20;99.90;;;;;;5046523;28;20204;-75
2021/08/26 08:04:01;;;;;;;3.47;1.95;;;19.20;99.90;;;;;;5052647;28;20195;-75
2021/08/26 08:06:28;;;;;;;4.82;2.33;;;19.20;99.90;;;;;;5052212;28;20250;-76
2021/08/26 08:08:55;;;;;;;3.42;2.47;;;19.20;99.90;;;;;;5051544;28;20245;-79
2021/08/26 08:11:22;;;;;;;2.67;1.45;;;19.20;99.90;;;;;;5057925;28;20199;-78
2021/08/26 08:13:49;;;;;;;4.10;1.85;;;19.20;99.90;;;;;;5055329;28;20199;-74
2021/08/26 08:16:16;;;;;;;4.25;2.03;;;19.20;99.90;;;;;;5049919;28;20219;-74
2021/08/26 08:18:44;;;;;;;5.55;2.20;;;19.20;99.90;;;;;;5043231;28;20729;-76
2021/08/26 08:21:10;;;;;;;2.85;1.60;;;19.20;99.90;;;;;;5052592;28;20638;-78
2021/08/26 08:23:37;;;;;;;4.25;1.83;;;19.20;99.90;;;;;;5052018;28;20199;-75
2021/08/26 08:26:10;;;;;;;2.65;1.63;;;19.20;99.90;;;;;;5051952;28;20195;-73
2021/08/26 08:28:37;;;;;;;3.63;1.60;;;19.10;99.90;;;;;;5052613;28;20207;-73
2021/08/26 08:31:04;;;;;;;3.67;2.40;;;19.10;99.90;;;;;;5050629;28;20194;-74
2021/08/26 08:33:31;;;;;;;3.40;1.77;;;19.10;99.90;;;;;;5049272;28;20286;-74
2021/08/26 08:35:59;;;;;;;2.50;1.45;;;19.10;99.90;;;;;;5052440;28;20564;-74
2021/08/26 08:38:25;;;;;;;5.80;2.90;;;19.10;99.90;;;;;;5050125;28;20207;-74
2021/08/26 08:40:52;;;;;;;5.45;2.30;;;18.90;99.90;;;;;;5051148;28;20191;-74
2021/08/26 08:43:19;;;;;;;7.10;2.67;;;19.00;99.90;;;;;;5051196;28;20192;-74
2021/08/26 08:45:46;;;;;;;4.28;1.95;;;19.00;99.90;;;;;;5050714;28;20199;-74
2021/08/26 08:48:14;;;;;;;5.55;1.70;;;19.00;99.90;;;;;;5039008;28;20274;-75
2021/08/26 08:50:42;;;;;;;4.25;2.10;;;19.00;99.90;;;;;;5050692;28;20210;-74
2021/08/26 08:53:14;;;;;;;3.90;1.98;;;19.00;99.90;;;;;;5049414;28;20206;-74
2021/08/26 08:55:42;;;;;;;7.22;2.15;;;19.10;99.90;;;;;;5046850;28;20210;-74
2021/08/26 08:58:08;;;;;;;6.00;2.33;;;19.10;99.90;;;;;;5043881;28;20250;-74
2021/08/26 09:00:35;;;;;;;6.38;2.00;;;19.10;99.90;;;;;;5045253;28;20671;-74
2021/08/26 09:03:02;;;;;;;4.00;1.95;;;19.10;99.90;;;;;;5037305;28;20602;-74
2021/08/26 09:05:50;;;;;;;4.43;1.92;;;19.20;99.90;;;;;;5048286;28;20207;-74
2021/08/26 09:08:18;;;;;;;5.38;2.42;;;19.20;99.90;;;;;;5049294;28;20208;-73
2021/08/26 09:10:46;;;;;;;3.90;2.05;;;19.20;99.90;;;;;;5044926;28;20187;-76
2021/08/26 09:13:13;;;;;;;7.45;2.05;;;19.20;99.90;;;;;;5037116;28;20862;-74
2021/08/26 09:15:46;;;;;;;4.28;1.77;;;19.20;99.90;;;;;;5050369;28;20381;-73
2021/08/26 09:18:14;;;;;;;4.25;2.38;;;19.20;99.90;;;;;;5040721;28;20216;-73
2021/08/26 09:20:50;;;;;;;3.90;1.75;;;19.20;99.90;;;;;;5046550;28;20231;-73
2021/08/26 09:23:18;;;;;;;5.05;2.20;;;19.20;99.90;;;;;;5031888;28;20200;-74
2021/08/26 09:25:45;;;;;;;3.40;2.97;;;19.20;99.90;;;;;;5041481;28;20269;-74
2021/08/26 09:28:27;;;;;;;4.43;2.10;;;19.20;99.90;;;;;;5050594;28;20214;-74
2021/08/26 09:31:09;;;;;;;2.60;1.80;;;19.20;99.90;;;;;;5044709;28;20248;-73
2021/08/26 09:33:50;;;;;;;3.67;2.17;;;19.20;99.90;;;;;;5042545;28;20203;-74
2021/08/26 09:36:22;;;;;;;2.60;1.80;;;19.30;99.90;;;;;;5049631;28;20553;-73
2021/08/26 09:38:52;;;;;;;3.45;1.77;;;19.30;99.90;;;;;;5048850;28;20196;-73
2021/08/26 09:41:37;;;;;;;3.47;1.77;;;19.30;99.90;;;;;;5047254;28;20191;-73
2021/08/26 09:44:04;;;;;;;3.00;1.80;;;19.20;99.90;;;;;;5054845;28;20192;-74
2021/08/26 09:46:31;;;;;;;3.15;1.67;;;19.30;99.90;;;;;;5054427;28;20564;-73
2021/08/26 09:49:02;;;;;;;4.13;1.85;;;19.30;99.90;;;;;;5047815;28;20568;-73
2021/08/26 09:51:29;;;;;;;5.75;2.35;;;19.30;99.90;;;;;;5055237;28;20632;-74
2021/08/26 09:53:57;;;;;;;5.68;1.88;;;19.30;99.90;;;;;;5046686;28;20200;-74
2021/08/26 09:56:24;;;;;;;8.05;2.20;;;19.30;99.90;;;;;;5043120;28;20200;-74
2021/08/26 09:58:53;;;;;;;4.50;1.98;;;19.30;99.90;;;;;;5052937;28;20615;-74
2021/08/26 10:01:23;;;;;;;4.75;2.30;;;19.30;99.90;;;;;;5051418;28;20226;-74
2021/08/26 10:03:51;;;;;;;5.13;2.70;;;19.40;99.90;;;;;;5037178;28;20201;-74
2021/08/26 10:06:19;;;;;;;2.10;1.77;;;19.40;99.90;;;;;;5053511;28;20210;-74
2021/08/26 10:08:48;;;;;;;3.35;1.83;;;19.40;99.90;;;;;;5052098;28;20560;-75
2021/08/26 10:11:19;;;;;;;3.45;1.80;;;19.40;99.90;;;;;;5051330;28;20187;-73
2021/08/26 10:13:47;;;;;;;4.22;2.05;;;19.50;99.90;;;;;;5053858;28;20702;-74
2021/08/26 10:16:14;;;;;;;3.63;2.00;;;19.50;99.90;;;;;;5054599;28;20203;-74
2021/08/26 10:18:41;;;;;;;5.10;2.25;;;19.60;99.90;;;;;;5046889;28;20196;-74
2021/08/26 10:21:09;;;;;;;5.05;2.08;;;19.70;99.90;;;;;;5038571;28;20731;-74
2021/08/26 10:23:39;;;;;;;3.00;1.85;;;19.80;99.90;;;;;;5049259;28;20200;-74
2021/08/26 10:26:07;;;;;;;5.40;2.03;;;19.80;99.90;;;;;;5049114;28;20274;-74
2021/08/26 10:28:39;;;;;;;3.60;1.70;;;19.90;99.90;;;;;;5040964;28;20215;-74
2021/08/26 10:31:25;;;;;;;3.15;2.08;;;19.90;99.90;;;;;;5047179;28;20245;-74
2021/08/26 10:34:07;;;;;;;4.13;2.08;;;19.90;99.90;;;;;;5041879;28;20187;-74
2021/08/26 10:36:43;;;;;;;3.88;1.92;;;19.90;99.90;;;;;;5044093;28;20203;-74
2021/08/26 10:39:26;;;;;;;5.82;2.40;;;19.80;99.90;;;;;;5041358;28;20290;-74
2021/08/26 10:41:52;;;;;;;4.90;2.72;;;19.90;99.90;;;;;;5039101;28;20250;-74
2021/08/26 10:44:21;;;;;;;3.95;2.17;;;19.90;99.90;;;;;;5045926;28;20195;-74
2021/08/26 10:46:49;;;;;;;2.85;1.65;;;19.90;99.90;;;;;;5048264;28;20196;-74
2021/08/26 10:49:16;;;;;;;6.78;2.15;;;20.00;99.90;;;;;;5044901;28;20620;-74
2021/08/26 10:51:44;;;;;;;7.10;2.10;;;20.00;99.90;;;;;;5043291;28;20590;-74
2021/08/26 10:54:26;;;;;;;3.17;2.05;;;20.10;99.90;;;;;;5044691;28;20617;-74
2021/08/26 10:56:53;;;;;;;3.78;2.05;;;20.10;99.90;;;;;;5043127;28;20211;-74
2021/08/26 10:59:29;;;;;;;2.65;1.33;;;20.20;99.90;;;;;;5046910;28;20237;-74
2021/08/26 11:01:57;;;;;;;6.45;2.20;;;20.20;99.90;;;;;;5043880;28;20245;-74
2021/08/26 11:04:30;;;;;;;2.85;1.65;;;20.30;99.90;;;;;;5047473;28;20192;-81
2021/08/26 11:06:58;;;;;;;7.10;1.63;;;20.30;99.90;;;;;;5054119;28;20239;-81
2021/08/26 11:09:33;;;;;;;6.10;2.70;;;20.30;99.90;;;;;;5046774;28;20202;-80
2021/08/26 11:12:06;;;;;;;3.22;1.77;;;20.30;99.90;;;;;;5053804;28;20184;-80
2021/08/26 11:14:39;;;;;;;6.10;2.75;;;20.40;99.90;;;;;;5061055;28;20207;-80
2021/08/26 11:17:06;;;;;;;2.88;2.05;;;20.40;99.90;;;;;;5056840;28;20275;-80
2021/08/26 11:19:37;;;;;;;9.75;2.17;;;20.40;99.90;;;;;;5054460;28;20238;-80
2021/08/26 11:22:10;;;;;;;6.53;2.90;;;20.40;99.90;;;;;;5056974;28;20194;-80
2021/08/26 11:24:59;;;;;;;2.92;1.90;;;20.40;99.90;;;;;;5060637;28;20192;-81
2021/08/26 11:27:31;;;;;;;2.60;1.77;;;20.50;99.90;;;;;;5059852;28;20274;-81
2021/08/26 11:30:19;;;;;;;5.97;2.72;;;20.50;99.90;;;;;;5050013;28;20271;-78
2021/08/26 11:32:46;;;;;;;5.90;2.70;;;20.50;99.90;;;;;;5039258;28;20207;-75
2021/08/26 11:35:13;;;;;;;5.70;2.10;;;20.50;99.90;;;;;;5046448;28;20192;-75
2021/08/26 11:37:39;;;;;;;7.50;2.22;;;20.50;99.90;;;;;;5046793;28;20555;-77
2021/08/26 11:40:08;;;;;;;2.47;1.58;;;20.50;99.90;;;;;;5046323;28;20253;-76
2021/08/26 11:42:37;;;;;;;5.50;2.42;;;20.50;99.90;;;;;;5043371;28;20652;-76
2021/08/26 11:45:14;;;;;;;4.93;1.95;;;20.50;99.90;;;;;;5046089;28;20553;-76
2021/08/26 11:47:43;;;;;;;3.72;2.00;;;20.60;99.90;;;;;;5040477;28;20211;-76
2021/08/26 11:50:20;;;;;;;5.05;2.10;;;20.60;99.90;;;;;;5042616;28;20262;-76
2021/08/26 11:52:48;;;;;;;7.75;4.00;;;20.60;99.90;;;;;;5045907;28;20223;-76
2021/08/26 11:55:15;;;;;;;4.70;1.85;;;20.70;99.90;;;;;;5043372;28;20656;-76
2021/08/26 11:57:42;;;;;;;4.60;2.30;;;20.70;99.90;;;;;;5048283;28;20699;-76
2021/08/26 12:00:17;;;;;;;2.22;1.98;;;20.70;99.90;;;;;;5051920;28;20195;-76
2021/08/26 12:02:51;;;;;;;4.03;1.90;;;20.70;99.90;;;;;;5045673;28;20250;-76
2021/08/26 12:05:18;;;;;;;4.55;2.30;;;20.70;99.90;;;;;;5061816;28;20191;-81
2021/08/26 12:07:46;;;;;;;3.00;1.95;;;20.80;99.90;;;;;;5066894;28;20196;-81
2021/08/26 12:10:17;;;;;;;4.90;2.03;;;20.80;99.90;;;;;;5058019;28;20199;-80
2021/08/26 12:13:05;;;;;;;4.65;2.17;;;20.70;99.90;;;;;;5062961;28;20218;-82
2021/08/26 12:15:35;;;;;;;6.13;2.20;;;20.70;99.90;;;;;;5055986;28;20204;-82
2021/08/26 12:18:12;;;;;;;5.57;3.05;;;20.80;99.90;;;;;;5066801;28;20218;-82
2021/08/26 12:20:43;;;;;;;5.47;2.08;;;21.10;99.90;;;;;;5067575;28;20211;-81
2021/08/26 12:23:10;;;;;;;3.90;2.38;;;20.80;99.90;;;;;;5063530;28;20271;-81
2021/08/26 12:25:39;;;;;;;2.00;1.60;;;21.20;99.90;;;;;;5064394;28;20195;-81
2021/08/26 12:28:32;;;;;;;3.05;1.70;;;22.90;99.90;;;;;;5065621;28;20222;-83
2021/08/26 12:31:00;;;;;;;4.47;2.58;;;21.30;99.90;;;;;;5067020;28;20195;-81
2021/08/26 12:33:28;;;;;;;5.72;2.65;;;21.50;99.90;;;;;;5060310;28;20192;-83
2021/08/26 12:35:56;;;;;;;3.92;2.45;;;20.90;99.90;;;;;;5052886;28;20200;-80
2021/08/26 12:38:36;;;;;;;5.25;1.95;;;21.00;99.90;;;;;;5064845;28;20216;-81
2021/08/26 12:41:05;;;;;;;2.58;2.10;;;22.60;99.90;;;;;;5070980;28;20205;-82
2021/08/26 12:43:43;;;;;;;4.13;1.70;;;22.70;99.90;;;;;;5072402;28;20199;-81
2021/08/26 12:46:16;;;;;;;1.65;1.45;;;21.00;99.90;;;;;;5065087;28;20195;-81
2021/08/26 12:48:44;;;;;;;3.90;1.77;;;21.00;99.90;;;;;;5055095;28;20200;-80
2021/08/26 12:51:21;;;;;;;3.70;2.08;;;21.00;99.90;;;;;;5052100;28;20248;-81
2021/08/26 12:53:50;;;;;;;3.22;2.10;;;21.00;99.90;;;;;;5056420;28;20207;-80
2021/08/26 12:56:20;;;;;;;3.03;2.30;;;21.00;99.90;;;;;;5054851;28;20706;-80
2021/08/26 12:59:05;;;;;;;3.70;1.75;;;21.10;99.90;;;;;;5046602;28;20219;-80
2021/08/26 13:01:35;;;;;;;5.95;2.10;;;21.10;99.90;;;;;;5052842;28;20624;-79